createdAt,value
2019-02-23T00:00:45.204Z,103174.05
2019-02-23T00:03:14.778Z,103170.11
2019-02-23T00:05:44.337Z,103180.55
2019-02-23T00:08:13.974Z,103181.84
2019-02-23T00:10:44.352Z,103187.47
2019-02-23T00:13:13.856Z,103175.85
2019-02-23T00:15:43.510Z,103182.89
2019-02-23T00:18:13.002Z,103183.42
2019-02-23T00:20:42.499Z,103181.84
2019-02-23T00:23:12.059Z,103180.78
2019-02-23T00:25:41.613Z,103185.44
2019-02-23T00:28:11.100Z,103175.95
2019-02-23T00:30:40.588Z,103181.73
2019-02-23T00:33:10.089Z,103177.08
2019-02-23T00:35:39.653Z,103174.92
2019-02-23T00:38:09.160Z,103173.70
2019-02-23T00:40:38.644Z,103174.49
2019-02-23T00:43:08.204Z,103173.05
2019-02-23T00:45:37.725Z,103179.59
2019-02-23T00:48:07.224Z,103177.16
2019-02-23T00:50:36.723Z,103169.17
2019-02-23T00:53:06.318Z,103167.72
2019-02-23T00:55:35.805Z,103164.66
2019-02-23T00:58:05.293Z,103161.13
2019-02-23T01:00:34.843Z,103163.56
2019-02-23T01:03:04.395Z,103158.41
2019-02-23T01:05:33.974Z,103161.77
2019-02-23T01:08:03.485Z,103164.43
2019-02-23T01:10:32.986Z,103161.02
2019-02-23T01:13:02.477Z,103166.59
2019-02-23T01:15:32.041Z,103175.70
2019-02-23T01:18:01.622Z,103167.81
2019-02-23T01:20:31.103Z,103167.06
2019-02-23T01:23:00.597Z,103168.57
2019-02-23T01:25:30.296Z,103173.52
2019-02-23T01:27:59.773Z,103173.95
2019-02-23T01:30:29.348Z,103172.02
2019-02-23T01:32:58.890Z,103163.48
2019-02-23T01:35:28.469Z,103165.34
2019-02-23T01:37:57.949Z,103167.08
2019-02-23T01:40:27.704Z,103159.22
2019-02-23T01:42:57.329Z,103162.20
2019-02-23T01:45:26.913Z,103163.75
2019-02-23T01:47:56.398Z,103165.59
2019-02-23T01:50:25.947Z,103169.34
2019-02-23T01:52:55.449Z,103173.10
2019-02-23T01:55:24.936Z,103171.87
2019-02-23T01:57:54.418Z,103173.09
2019-02-23T02:00:24.150Z,103167.03
2019-02-23T02:02:53.656Z,103169.66
2019-02-23T02:05:23.156Z,103167.89
2019-02-23T02:07:52.729Z,103173.11
2019-02-23T02:10:22.296Z,103172.88
2019-02-23T02:12:52.005Z,103178.74
2019-02-23T02:15:21.498Z,103182.23
2019-02-23T02:17:50.993Z,103182.91
2019-02-23T02:20:20.474Z,103186.25
2019-02-23T02:22:50.048Z,103182.08
2019-02-23T02:25:19.520Z,103186.55
2019-02-23T02:27:49.019Z,103181.69
2019-02-23T02:30:18.491Z,103177.09
2019-02-23T02:32:48.234Z,103180.29
2019-02-23T02:35:17.728Z,103178.14
2019-02-23T02:37:47.210Z,103174.57
2019-02-23T02:40:16.721Z,103171.77
2019-02-23T02:42:46.238Z,103174.50
2019-02-23T02:45:15.739Z,103171.83
2019-02-23T02:47:45.239Z,103170.80
2019-02-23T02:50:23.856Z,103169.57
2019-02-23T02:52:46.039Z,103171.03
2019-02-23T02:55:15.540Z,103161.45
2019-02-23T02:57:45.058Z,103162.75
2019-02-23T03:00:14.645Z,103161.20
2019-02-23T03:02:44.128Z,103159.82
2019-02-23T03:05:13.758Z,103160.48
2019-02-23T03:07:43.351Z,103165.77
2019-02-23T03:10:12.852Z,103167.26
2019-02-23T03:12:42.334Z,103161.61
2019-02-23T03:15:11.963Z,103165.64
2019-02-23T03:17:41.447Z,103161.74
2019-02-23T03:20:11.217Z,103157.71
2019-02-23T03:22:40.702Z,103154.57
2019-02-23T03:25:10.281Z,103144.85
2019-02-23T03:27:39.768Z,103149.34
2019-02-23T03:30:11.844Z,103150.41
2019-02-23T03:32:41.527Z,103148.63
2019-02-23T03:35:11.103Z,103150.30
2019-02-23T03:37:40.649Z,103155.33
2019-02-23T03:40:10.637Z,103159.17
2019-02-23T03:42:40.121Z,103161.28
2019-02-23T03:45:10.169Z,103157.34
2019-02-23T03:47:39.663Z,103164.12
2019-02-23T03:50:09.503Z,103163.62
2019-02-23T03:52:39.055Z,103160.22
2019-02-23T03:55:08.758Z,103165.61
2019-02-23T03:57:38.247Z,103157.52
2019-02-23T04:00:11.605Z,103159.36
2019-02-23T04:02:41.090Z,103160.09
2019-02-23T04:05:10.762Z,103150.27
2019-02-23T04:07:40.266Z,103147.92
2019-02-23T04:10:10.187Z,103153.70
2019-02-23T04:12:39.662Z,103157.81
2019-02-23T04:15:09.317Z,103150.73
2019-02-23T04:17:38.953Z,103149.28
2019-02-23T04:20:09.074Z,103148.95
2019-02-23T04:22:38.586Z,103156.69
2019-02-23T04:25:09.613Z,103158.06
2019-02-23T04:27:39.107Z,103166.69
2019-02-23T04:30:09.938Z,103160.62
2019-02-23T04:32:39.478Z,103166.27
2019-02-23T04:35:09.139Z,103173.48
2019-02-23T04:37:38.635Z,103174.46
2019-02-23T04:40:08.698Z,103174.14
2019-02-23T04:42:38.184Z,103177.45
2019-02-23T04:45:09.038Z,103186.36
2019-02-23T04:47:38.532Z,103185.52
2019-02-23T04:50:12.416Z,103191.95
2019-02-23T04:52:41.976Z,103193.83
2019-02-23T04:55:12.031Z,103194.56
2019-02-23T04:57:41.511Z,103197.94
2019-02-23T05:00:16.205Z,103202.13
2019-02-23T05:03:05.056Z,103202.86
2019-02-23T05:05:34.609Z,103206.40
2019-02-23T05:08:04.168Z,103206.63
2019-02-23T05:10:33.734Z,103209.71
2019-02-23T05:13:03.222Z,103205.45
2019-02-23T05:15:32.705Z,103205.05
2019-02-23T05:18:02.198Z,103205.11
2019-02-23T05:20:31.681Z,103219.77
2019-02-23T05:23:01.164Z,103220.83
2019-02-23T05:25:30.647Z,103227.13
2019-02-23T05:28:00.140Z,103221.59
2019-02-23T05:30:29.622Z,103221.33
2019-02-23T05:32:59.123Z,103222.95
2019-02-23T05:35:28.620Z,103225.70
2019-02-23T05:37:58.108Z,103224.04
2019-02-23T05:40:27.601Z,103222.45
2019-02-23T05:43:00.923Z,103216.84
2019-02-23T05:45:28.449Z,103217.83
2019-02-23T05:47:57.930Z,103216.53
2019-02-23T05:50:27.462Z,103222.06
2019-02-23T05:52:57.015Z,103219.72
2019-02-23T05:55:26.487Z,103224.08
2019-02-23T05:57:55.975Z,103222.45
2019-02-23T06:00:25.471Z,103227.55
2019-02-23T06:02:54.979Z,103226.09
2019-02-23T06:05:24.459Z,103223.05
2019-02-23T06:07:53.951Z,103228.58
2019-02-23T06:10:23.506Z,103231.33
2019-02-23T06:12:53.027Z,103239.27
2019-02-23T06:15:22.496Z,103242.54
2019-02-23T06:17:52.047Z,103240.02
2019-02-23T06:20:21.563Z,103238.98
2019-02-23T06:22:51.052Z,103247.67
2019-02-23T06:25:20.596Z,103258.13
2019-02-23T06:27:50.039Z,103248.20
2019-02-23T06:30:19.531Z,103249.52
2019-02-23T06:32:49.014Z,103248.11
2019-02-23T06:35:18.499Z,103249.06
2019-02-23T06:37:47.995Z,103256.30
2019-02-23T06:40:17.493Z,103261.50
2019-02-23T06:42:46.951Z,103260.27
2019-02-23T06:45:16.474Z,103260.70
2019-02-23T06:47:45.958Z,103261.59
2019-02-23T06:50:15.535Z,103270.14
2019-02-23T06:52:45.088Z,103276.08
2019-02-23T06:55:14.575Z,103278.69
2019-02-23T06:57:44.133Z,103285.56
2019-02-23T07:00:17.258Z,103279.88
2019-02-23T07:02:46.739Z,103280.12
2019-02-23T07:05:16.221Z,103282.30
2019-02-23T07:07:45.706Z,103282.84
2019-02-23T07:10:15.688Z,103282.98
2019-02-23T07:12:45.320Z,103276.76
2019-02-23T07:15:15.322Z,103276.80
2019-02-23T07:17:44.808Z,103275.22
2019-02-23T07:20:14.364Z,103275.76
2019-02-23T07:22:43.900Z,103273.97
2019-02-23T07:25:13.444Z,103267.39
2019-02-23T07:27:42.930Z,103270.77
2019-02-23T07:30:14.546Z,103269.07
2019-02-23T07:32:44.054Z,103266.34
2019-02-23T07:35:13.684Z,103268.78
2019-02-23T07:37:45.139Z,103265.66
2019-02-23T07:40:16.722Z,103258.78
2019-02-23T07:42:46.486Z,103258.58
2019-02-23T07:45:16.211Z,103266.22
2019-02-23T07:47:45.732Z,103264.98
2019-02-23T07:50:17.124Z,103264.73
2019-02-23T07:52:46.593Z,103265.96
2019-02-23T07:55:16.084Z,103260.44
2019-02-23T07:57:45.591Z,103266.10
2019-02-23T08:00:15.704Z,103261.67
2019-02-23T08:02:45.209Z,103258.97
2019-02-23T08:05:14.810Z,103251.34
2019-02-23T08:07:44.284Z,103250.36
2019-02-23T08:10:14.328Z,103253.36
2019-02-23T08:12:43.909Z,103249.50
2019-02-23T08:15:13.650Z,103256.91
2019-02-23T08:17:43.177Z,103251.36
2019-02-23T08:20:14.174Z,103248.31
2019-02-23T08:22:43.727Z,103245.89
2019-02-23T08:25:15.214Z,103246.05
2019-02-23T08:27:44.775Z,103245.89
2019-02-23T08:30:16.664Z,103238.95
2019-02-23T08:32:46.230Z,103237.84
2019-02-23T08:35:15.708Z,103232.24
2019-02-23T08:37:47.078Z,103232.95
2019-02-23T08:40:18.195Z,103232.97
2019-02-23T08:42:47.687Z,103229.73
2019-02-23T08:45:17.172Z,103231.16
2019-02-23T08:47:47.027Z,103226.20
2019-02-23T08:50:16.968Z,103230.36
2019-02-23T08:52:49.548Z,103218.06
2019-02-23T08:55:17.677Z,103219.47
2019-02-23T08:57:47.216Z,103228.05
2019-02-23T09:00:20.798Z,103227.95
2019-02-23T09:02:50.365Z,103228.14
2019-02-23T09:05:19.862Z,103221.80
2019-02-23T09:07:49.363Z,103225.03
2019-02-23T09:10:18.902Z,103225.71
2019-02-23T09:12:48.478Z,103218.32
2019-02-23T09:15:18.052Z,103218.47
2019-02-23T09:17:47.527Z,103224.04
2019-02-23T09:20:28.283Z,103229.67
2019-02-23T09:22:59.499Z,103225.23
2019-02-23T09:25:19.560Z,103226.82
2019-02-23T09:27:49.045Z,103231.65
2019-02-23T09:30:18.611Z,103233.37
2019-02-23T09:32:48.116Z,103228.79
2019-02-23T09:35:17.697Z,103226.47
2019-02-23T09:37:47.614Z,103226.20
2019-02-23T09:40:21.359Z,103227.67
2019-02-23T09:42:50.909Z,103228.42
2019-02-23T09:45:20.454Z,103229.11
2019-02-23T09:47:49.972Z,103226.12
2019-02-23T09:50:19.526Z,103222.30
2019-02-23T09:52:49.048Z,103218.06
2019-02-23T09:55:18.532Z,103211.44
2019-02-23T09:57:48.056Z,103214.46
2019-02-23T10:00:17.552Z,103231.47
2019-02-23T10:02:47.064Z,103232.97
2019-02-23T10:05:16.546Z,103232.74
2019-02-23T10:07:46.041Z,103237.69
2019-02-23T10:10:15.694Z,103240.89
2019-02-23T10:12:45.190Z,103242.84
2019-02-23T10:15:14.841Z,103251.37
2019-02-23T10:17:44.333Z,103247.11
2019-02-23T10:20:16.960Z,103240.74
2019-02-23T10:22:46.536Z,103244.02
2019-02-23T10:25:16.014Z,103236.73
2019-02-23T10:27:45.532Z,103233.52
2019-02-23T10:30:17.029Z,103235.53
2019-02-23T10:32:46.508Z,103230.20
2019-02-23T10:35:16.083Z,103223.47
2019-02-23T10:37:46.262Z,103230.20
2019-02-23T10:40:15.743Z,103227.98
2019-02-23T10:42:45.251Z,103222.60
2019-02-23T10:45:15.350Z,103225.85
2019-02-23T10:47:44.854Z,103228.28
2019-02-23T10:50:15.964Z,103218.77
2019-02-23T10:52:45.518Z,103223.23
2019-02-23T10:55:16.252Z,103222.28
2019-02-23T10:57:45.773Z,103215.27
2019-02-23T11:00:19.946Z,103216.00
2019-02-23T11:02:49.616Z,103206.50
2019-02-23T11:05:19.909Z,103203.88
2019-02-23T11:07:49.477Z,103198.66
2019-02-23T11:10:19.131Z,103196.02
2019-02-23T11:12:48.712Z,103192.83
2019-02-23T11:15:19.916Z,103197.31
2019-02-23T11:17:49.424Z,103204.45
2019-02-23T11:20:19.536Z,103196.42
2019-02-23T11:22:49.029Z,103196.47
2019-02-23T11:25:18.580Z,103191.93
2019-02-23T11:27:48.109Z,103193.81
2019-02-23T11:30:18.043Z,103195.68
2019-02-23T11:32:47.556Z,103183.59
2019-02-23T11:35:17.944Z,103173.06
2019-02-23T11:37:52.232Z,103172.42
2019-02-23T11:40:23.538Z,103173.30
2019-02-23T11:42:52.963Z,103168.66
2019-02-23T11:45:22.459Z,103164.53
2019-02-23T11:47:51.944Z,103158.15
2019-02-23T11:50:21.619Z,103155.95
2019-02-23T11:52:51.112Z,103158.67
2019-02-23T11:55:20.690Z,103154.50
2019-02-23T11:57:50.204Z,103152.52
2019-02-23T12:00:19.781Z,103146.05
2019-02-23T12:02:52.443Z,103140.87
2019-02-23T12:05:20.584Z,103141.77
2019-02-23T12:07:50.150Z,103139.63
2019-02-23T12:10:19.728Z,103130.02
2019-02-23T12:12:49.311Z,103127.39
2019-02-23T12:15:18.848Z,103119.62
2019-02-23T12:17:48.414Z,103113.80
2019-02-23T12:20:17.951Z,103115.55
2019-02-23T12:22:47.473Z,103108.17
2019-02-23T12:25:16.988Z,103108.34
2019-02-23T12:27:46.449Z,103095.20
2019-02-23T12:30:16.011Z,103096.84
2019-02-23T12:32:45.565Z,103087.02
2019-02-23T12:35:15.145Z,103089.55
2019-02-23T12:37:45.221Z,103090.56
2019-02-23T12:40:14.861Z,103077.51
2019-02-23T12:42:44.440Z,103073.89
2019-02-23T12:45:14.772Z,103070.60
2019-02-23T12:47:44.356Z,103065.53
2019-02-23T12:50:14.583Z,103066.68
2019-02-23T12:52:44.160Z,103078.33
2019-02-23T12:55:13.808Z,103077.77
2019-02-23T12:57:43.296Z,103076.67
2019-02-23T13:00:17.881Z,103083.70
2019-02-23T13:02:47.494Z,103086.52
2019-02-23T13:05:17.089Z,103083.91
2019-02-23T13:07:46.665Z,103075.84
2019-02-23T13:10:16.146Z,103072.12
2019-02-23T13:12:52.818Z,103064.11
2019-02-23T13:15:42.115Z,103058.28
2019-02-23T13:18:52.282Z,103060.75
2019-02-23T13:21:35.310Z,103056.52
2019-02-23T13:24:36.575Z,103051.49
2019-02-23T13:27:13.412Z,103041.16
2019-02-23T13:29:56.307Z,103049.89
2019-02-23T13:32:48.559Z,103052.66
2019-02-23T13:35:49.715Z,103056.78
2019-02-23T13:38:44.975Z,103052.44
2019-02-23T13:41:37.927Z,103043.03
2019-02-23T13:44:50.656Z,103056.73
2019-02-23T13:47:44.432Z,103047.73
2019-02-23T13:50:38.324Z,103048.27
2019-02-23T13:53:21.061Z,103050.63
2019-02-23T13:56:07.052Z,103052.08
2019-02-23T13:58:49.784Z,103046.41
2019-02-23T14:01:32.595Z,103054.34
2019-02-23T14:04:15.512Z,103057.72
2019-02-23T14:07:16.639Z,103058.09
2019-02-23T14:10:39.203Z,103070.17
2019-02-23T14:13:19.435Z,103063.02
2019-02-23T14:16:15.978Z,103057.91
2019-02-23T14:18:52.845Z,103064.40
2019-02-23T14:21:58.644Z,103058.69
2019-02-23T14:24:53.414Z,103058.03
2019-02-23T14:27:53.127Z,103064.11
2019-02-23T14:30:56.940Z,103052.58
2019-02-23T14:33:54.674Z,103048.16
2019-02-23T14:36:49.101Z,103054.83
2019-02-23T14:39:56.924Z,103052.31
2019-02-23T14:42:39.393Z,103040.29
2019-02-23T14:45:19.022Z,103038.78
2019-02-23T14:48:05.302Z,103040.08
2019-02-23T14:51:11.485Z,103040.77
2019-02-23T14:53:57.846Z,103040.28
2019-02-23T14:56:55.852Z,103036.73
2019-02-23T14:59:44.729Z,103042.91
2019-02-23T15:02:50.228Z,103046.27
2019-02-23T15:05:39.017Z,103049.23
2019-02-23T15:09:00.399Z,103046.36
2019-02-23T15:11:54.846Z,103047.73
2019-02-23T15:14:31.741Z,103061.30
2019-02-23T15:17:29.960Z,103062.89
2019-02-23T15:20:38.644Z,103055.09
2019-02-23T15:23:35.616Z,103054.18
2019-02-23T15:26:12.697Z,103052.73
2019-02-23T15:29:02.025Z,103049.95
2019-02-23T15:32:07.544Z,103044.45
2019-02-23T15:34:56.364Z,103043.83
2019-02-23T15:37:36.430Z,103036.34
2019-02-23T15:40:28.463Z,103034.59
2019-02-23T15:43:13.918Z,103031.77
2019-02-23T15:46:02.380Z,103037.70
2019-02-23T15:49:06.188Z,103037.55
2019-02-23T15:51:35.833Z,103037.08
2019-02-23T15:54:05.462Z,103044.00
2019-02-23T15:56:35.055Z,103040.97
2019-02-23T15:59:04.580Z,103039.39
2019-02-23T16:01:34.073Z,103041.80
2019-02-23T16:04:03.629Z,103044.09
2019-02-23T16:06:33.127Z,103046.63
2019-02-23T16:09:02.758Z,103049.70
2019-02-23T16:11:32.257Z,103048.55
2019-02-23T16:14:01.748Z,103050.67
2019-02-23T16:16:31.301Z,103049.98
2019-02-23T16:19:00.896Z,103049.09
2019-02-23T16:21:30.464Z,103047.80
2019-02-23T16:23:59.967Z,103043.64
2019-02-23T16:26:29.606Z,103052.98
2019-02-23T16:28:59.114Z,103059.63
2019-02-23T16:31:28.605Z,103061.61
2019-02-23T16:33:58.194Z,103068.08
2019-02-23T16:36:27.700Z,103069.91
2019-02-23T16:38:57.292Z,103078.58
2019-02-23T16:41:26.776Z,103071.98
2019-02-23T16:43:56.274Z,103072.09
2019-02-23T16:46:25.818Z,103073.63
2019-02-23T16:48:55.275Z,103076.27
2019-02-23T16:51:24.829Z,103082.56
2019-02-23T16:53:54.414Z,103084.33
2019-02-23T16:56:23.953Z,103080.73
2019-02-23T16:58:53.452Z,103080.94
2019-02-23T17:01:22.948Z,103074.05
2019-02-23T17:03:52.443Z,103074.02
2019-02-23T17:06:21.923Z,103078.52
2019-02-23T17:08:51.422Z,103077.78
2019-02-23T17:11:20.924Z,103082.85
2019-02-23T17:13:50.414Z,103083.97
2019-02-23T17:16:19.995Z,103083.41
2019-02-23T17:18:49.505Z,103078.55
2019-02-23T17:21:18.990Z,103083.19
2019-02-23T17:23:48.537Z,103086.45
2019-02-23T17:26:18.355Z,103092.85
2019-02-23T17:28:47.855Z,103092.59
2019-02-23T17:31:18.885Z,103088.18
2019-02-23T17:33:48.377Z,103086.95
2019-02-23T17:36:17.965Z,103085.70
2019-02-23T17:38:47.468Z,103082.84
2019-02-23T17:41:17.123Z,103079.93
2019-02-23T17:43:46.712Z,103082.73
2019-02-23T17:46:16.416Z,103082.95
2019-02-23T17:48:46.106Z,103079.66
2019-02-23T17:51:15.724Z,103085.89
2019-02-23T17:53:45.288Z,103087.42
2019-02-23T17:56:14.773Z,103089.45
2019-02-23T17:58:44.311Z,103089.45
2019-02-23T18:01:13.986Z,103089.19
2019-02-23T18:03:43.537Z,103077.74
2019-02-23T18:06:13.108Z,103083.66
2019-02-23T18:08:42.627Z,103078.35
2019-02-23T18:11:12.097Z,103075.56
2019-02-23T18:13:41.734Z,103071.39
2019-02-23T18:16:11.277Z,103067.39
2019-02-23T18:18:40.781Z,103065.89
2019-02-23T18:21:10.330Z,103059.55
2019-02-23T18:23:39.855Z,103063.44
2019-02-23T18:26:09.336Z,103060.64
2019-02-23T18:28:38.905Z,103066.02
2019-02-23T18:31:08.412Z,103060.23
2019-02-23T18:33:38.268Z,103064.44
2019-02-23T18:36:07.949Z,103069.30
2019-02-23T18:38:37.532Z,103076.17
2019-02-23T18:41:06.996Z,103077.39
2019-02-23T18:43:36.505Z,103080.58
2019-02-23T18:46:06.007Z,103084.27
2019-02-23T18:48:35.477Z,103081.56
2019-02-23T18:51:05.042Z,103082.56
2019-02-23T18:53:34.540Z,103086.84
2019-02-23T18:56:05.248Z,103088.86
2019-02-23T18:58:34.729Z,103089.46
2019-02-23T19:01:04.350Z,103095.41
2019-02-23T19:03:33.859Z,103099.11
2019-02-23T19:06:03.337Z,103104.55
2019-02-23T19:08:32.823Z,103099.20
2019-02-23T19:11:02.301Z,103100.87
2019-02-23T19:13:31.938Z,103105.66
2019-02-23T19:16:01.505Z,103103.95
2019-02-23T19:18:30.977Z,103103.84
2019-02-23T19:21:00.552Z,103116.45
2019-02-23T19:23:30.123Z,103114.47
2019-02-23T19:25:59.684Z,103109.48
2019-02-23T19:28:29.166Z,103114.03
2019-02-23T19:30:58.650Z,103113.08
2019-02-23T19:33:28.165Z,103112.31
2019-02-23T19:35:57.639Z,103103.85
2019-02-23T19:38:27.244Z,103105.98
2019-02-23T19:40:56.744Z,103104.20
2019-02-23T19:43:26.222Z,103107.17
2019-02-23T19:45:55.715Z,103113.85
2019-02-23T19:48:25.193Z,103112.22
2019-02-23T19:50:59.745Z,103111.42
2019-02-23T19:53:29.284Z,103116.80
2019-02-23T19:55:58.848Z,103110.59
2019-02-23T19:58:28.411Z,103110.74
2019-02-23T20:00:57.999Z,103110.58
2019-02-23T20:03:27.478Z,103111.59
2019-02-23T20:05:56.992Z,103120.33
2019-02-23T20:08:26.494Z,103117.03
2019-02-23T20:10:56.046Z,103123.58
2019-02-23T20:13:25.635Z,103123.36
2019-02-23T20:15:55.123Z,103123.62
2019-02-23T20:18:24.709Z,103123.84
2019-02-23T20:20:54.270Z,103132.84
2019-02-23T20:23:23.770Z,103128.56
2019-02-23T20:25:53.350Z,103124.70
2019-02-23T20:28:22.920Z,103134.38
2019-02-23T20:30:52.482Z,103133.44
2019-02-23T20:33:22.089Z,103133.70
2019-02-23T20:35:51.557Z,103130.41
2019-02-23T20:38:21.043Z,103130.98
2019-02-23T20:40:50.523Z,103131.29
2019-02-23T20:43:20.022Z,103124.80
2019-02-23T20:45:49.486Z,103141.45
2019-02-23T20:48:19.049Z,103130.73
2019-02-23T20:50:48.518Z,103130.90
2019-02-23T20:53:18.108Z,103133.88
2019-02-23T20:55:47.620Z,103125.90
2019-02-23T20:58:17.187Z,103132.28
2019-02-23T21:00:46.872Z,103130.01
2019-02-23T21:03:16.386Z,103133.41
2019-02-23T21:05:46.002Z,103137.75
2019-02-23T21:08:15.491Z,103130.67
2019-02-23T21:10:44.973Z,103137.61
2019-02-23T21:13:14.493Z,103135.03
2019-02-23T21:15:44.088Z,103134.06
2019-02-23T21:18:13.669Z,103131.95
2019-02-23T21:20:43.275Z,103139.05
2019-02-23T21:23:12.856Z,103135.56
2019-02-23T21:25:42.609Z,103134.42
2019-02-23T21:28:12.127Z,103131.31
2019-02-23T21:30:41.751Z,103126.45
2019-02-23T21:33:11.256Z,103129.03
2019-02-23T21:35:40.770Z,103129.23
2019-02-23T21:38:11.983Z,103124.53
2019-02-23T21:40:41.493Z,103119.45
2019-02-23T21:43:11.011Z,103120.17
2019-02-23T21:45:40.481Z,103117.98
2019-02-23T21:48:09.955Z,103115.49
2019-02-23T21:50:39.501Z,103124.22
2019-02-23T21:53:09.009Z,103118.95
2019-02-23T21:55:38.582Z,103117.83
2019-02-23T21:58:08.152Z,103115.59
2019-02-23T22:00:37.688Z,103118.17
2019-02-23T22:03:07.279Z,103111.55
2019-02-23T22:05:37.017Z,103113.02
2019-02-23T22:08:06.571Z,103104.42
2019-02-23T22:10:36.135Z,103105.59
2019-02-23T22:13:05.644Z,103107.47
2019-02-23T22:15:35.251Z,103118.37
2019-02-23T22:18:04.820Z,103117.77
2019-02-23T22:20:34.453Z,103117.14
2019-02-23T22:23:03.982Z,103119.22
2019-02-23T22:25:33.541Z,103115.91
2019-02-23T22:28:03.025Z,103120.33
2019-02-23T22:30:32.594Z,103118.16
2019-02-23T22:33:02.095Z,103121.36
2019-02-23T22:35:31.632Z,103119.58
2019-02-23T22:38:01.129Z,103125.19
2019-02-23T22:40:30.610Z,103121.02
2019-02-23T22:43:00.092Z,103126.29
2019-02-23T22:45:29.561Z,103125.75
2019-02-23T22:47:59.064Z,103123.09
2019-02-23T22:50:28.645Z,103124.63
2019-02-23T22:52:58.119Z,103122.08
2019-02-23T22:55:27.612Z,103118.80
2019-02-23T22:57:57.090Z,103117.56
2019-02-23T23:00:28.224Z,103115.83
2019-02-23T23:02:57.982Z,103111.57
2019-02-23T23:05:27.554Z,103110.39
2019-02-23T23:07:57.107Z,103116.30
2019-02-23T23:10:26.605Z,103118.88
2019-02-23T23:12:57.771Z,103116.66
2019-02-23T23:15:27.579Z,103119.23
2019-02-23T23:17:57.125Z,103118.94
2019-02-23T23:20:26.570Z,103120.43
2019-02-23T23:22:56.076Z,103113.45
2019-02-23T23:25:25.564Z,103112.07
2019-02-23T23:27:55.025Z,103110.58
2019-02-23T23:30:24.532Z,103109.28
2019-02-23T23:32:54.021Z,103110.38
2019-02-23T23:35:23.513Z,103101.91
2019-02-23T23:37:53.022Z,103105.13
2019-02-23T23:40:22.585Z,103102.30
2019-02-23T23:42:57.971Z,103095.03
2019-02-23T23:45:23.605Z,103095.81
2019-02-23T23:47:53.118Z,103098.56
2019-02-23T23:50:22.620Z,103098.11
2019-02-23T23:52:52.190Z,103099.80
2019-02-23T23:55:21.667Z,103098.80
2019-02-23T23:57:58.028Z,103091.99
